sensor_id;sensor_type;location;lat;lon;timestamp;pressure;altitude;pressure_sealevel;temperature;humidity
63970;BME280;50156;37.772;-122.432;2022-09-12T00:01:05;101165.15;;;20.95;100.00
63970;BME280;50156;37.772;-122.432;2022-09-12T00:03:34;101165.30;;;20.93;100.00
63970;BME280;50156;37.772;-122.432;2022-09-12T00:06:08;101165.27;;;21.08;100.00
63970;BME280;50156;37.772;-122.432;2022-09-12T00:08:36;101161.58;;;21.09;100.00
63970;BME280;50156;37.772;-122.432;2022-09-12T00:11:07;101161.48;;;21.27;100.00
63970;BME280;50156;37.772;-122.432;2022-09-12T00:13:36;101162.94;;;21.41;100.00
63970;BME280;50156;37.772;-122.432;2022-09-12T00:16:05;101162.62;;;21.69;100.00
63970;BME280;50156;37.772;-122.432;2022-09-12T00:18:34;101162.96;;;21.48;100.00
63970;BME280;50156;37.772;-122.432;2022-09-12T00:21:04;101158.90;;;20.86;100.00
63970;BME280;50156;37.772;-122.432;2022-09-12T00:23:33;101163.51;;;20.59;100.00
63970;BME280;50156;37.772;-122.432;2022-09-12T00:26:05;101163.15;;;20.40;100.00
63970;BME280;50156;37.772;-122.432;2022-09-12T00:28:35;101158.88;;;20.28;100.00
63970;BME280;50156;37.772;-122.432;2022-09-12T00:31:05;101168.36;;;20.06;100.00
63970;BME280;50156;37.772;-122.432;2022-09-12T00:33:34;101166.44;;;20.03;100.00
63970;BME280;50156;37.772;-122.432;2022-09-12T00:36:06;101169.01;;;19.94;100.00
63970;BME280;50156;37.772;-122.432;2022-09-12T00:38:35;101171.14;;;19.83;100.00
63970;BME280;50156;37.772;-122.432;2022-09-12T00:41:04;101169.38;;;19.81;100.00
63970;BME280;50156;37.772;-122.432;2022-09-12T00:43:36;101165.69;;;19.89;100.00
63970;BME280;50156;37.772;-122.432;2022-09-12T00:46:12;101155.50;;;20.41;100.00
63970;BME280;50156;37.772;-122.432;2022-09-12T00:48:47;101153.77;;;20.40;100.00
63970;BME280;50156;37.772;-122.432;2022-09-12T00:51:17;101157.71;;;20.41;100.00
63970;BME280;50156;37.772;-122.432;2022-09-12T00:53:48;101151.59;;;20.24;100.00
63970;BME280;50156;37.772;-122.432;2022-09-12T00:56:19;101154.21;;;19.77;100.00
63970;BME280;50156;37.772;-122.432;2022-09-12T00:58:52;101159.57;;;19.60;100.00
63970;BME280;50156;37.772;-122.432;2022-09-12T01:01:23;101166.21;;;19.48;100.00
63970;BME280;50156;37.772;-122.432;2022-09-12T01:03:52;101156.66;;;19.54;100.00
63970;BME280;50156;37.772;-122.432;2022-09-12T01:06:25;101162.92;;;19.26;100.00
63970;BME280;50156;37.772;-122.432;2022-09-12T01:08:55;101161.54;;;19.36;100.00
63970;BME280;50156;37.772;-122.432;2022-09-12T01:11:24;101168.58;;;19.13;100.00
63970;BME280;50156;37.772;-122.432;2022-09-12T01:13:54;101165.49;;;19.21;100.00
63970;BME280;50156;37.772;-122.432;2022-09-12T01:16:23;101169.41;;;19.23;100.00
63970;BME280;50156;37.772;-122.432;2022-09-12T01:19:01;101168.51;;;19.14;100.00
63970;BME280;50156;37.772;-122.432;2022-09-12T01:21:44;101171.48;;;19.15;100.00
63970;BME280;50156;37.772;-122.432;2022-09-12T01:25:27;101167.65;;;19.19;100.00
63970;BME280;50156;37.772;-122.432;2022-09-12T01:28:18;101170.39;;;19.14;100.00
63970;BME280;50156;37.772;-122.432;2022-09-12T01:30:52;101174.28;;;19.00;100.00
63970;BME280;50156;37.772;-122.432;2022-09-12T01:33:38;101174.91;;;19.02;100.00
63970;BME280;50156;37.772;-122.432;2022-09-12T01:36:31;101182.82;;;19.10;100.00
63970;BME280;50156;37.772;-122.432;2022-09-12T01:39:04;101183.26;;;18.83;100.00
63970;BME280;50156;37.772;-122.432;2022-09-12T01:41:41;101188.99;;;18.73;100.00
63970;BME280;50156;37.772;-122.432;2022-09-12T01:44:22;101189.80;;;18.66;100.00
63970;BME280;50156;37.772;-122.432;2022-09-12T01:46:57;101192.35;;;18.76;100.00
63970;BME280;50156;37.772;-122.432;2022-09-12T01:49:34;101184.52;;;18.50;100.00
63970;BME280;50156;37.772;-122.432;2022-09-12T01:52:09;101181.45;;;18.52;100.00
63970;BME280;50156;37.772;-122.432;2022-09-12T01:54:43;101189.30;;;18.41;100.00
63970;BME280;50156;37.772;-122.432;2022-09-12T01:57:19;101183.91;;;18.31;100.00
63970;BME280;50156;37.772;-122.432;2022-09-12T01:59:55;101186.86;;;18.27;100.00
63970;BME280;50156;37.772;-122.432;2022-09-12T02:02:31;101185.24;;;18.29;100.00
63970;BME280;50156;37.772;-122.432;2022-09-12T02:05:07;101187.02;;;18.17;100.00
63970;BME280;50156;37.772;-122.432;2022-09-12T02:07:39;101188.73;;;18.18;100.00
63970;BME280;50156;37.772;-122.432;2022-09-12T02:10:13;101190.29;;;18.14;100.00
63970;BME280;50156;37.772;-122.432;2022-09-12T02:12:46;101193.73;;;18.13;100.00
63970;BME280;50156;37.772;-122.432;2022-09-12T02:15:19;101197.83;;;18.02;100.00
63970;BME280;50156;37.772;-122.432;2022-09-12T02:17:50;101195.81;;;18.12;100.00
63970;BME280;50156;37.772;-122.432;2022-09-12T02:20:24;101199.54;;;17.99;100.00
63970;BME280;50156;37.772;-122.432;2022-09-12T02:22:55;101202.37;;;17.98;100.00
63970;BME280;50156;37.772;-122.432;2022-09-12T02:25:25;101204.53;;;17.92;100.00
63970;BME280;50156;37.772;-122.432;2022-09-12T02:28:01;101208.72;;;17.90;100.00
63970;BME280;50156;37.772;-122.432;2022-09-12T02:30:36;101208.88;;;17.93;100.00
63970;BME280;50156;37.772;-122.432;2022-09-12T02:33:13;101214.26;;;17.97;100.00
63970;BME280;50156;37.772;-122.432;2022-09-12T02:35:49;101216.47;;;17.82;100.00
63970;BME280;50156;37.772;-122.432;2022-09-12T02:38:25;101222.10;;;17.85;100.00
63970;BME280;50156;37.772;-122.432;2022-09-12T02:40:58;101225.29;;;17.93;100.00
63970;BME280;50156;37.772;-122.432;2022-09-12T02:43:27;101227.81;;;17.89;100.00
63970;BME280;50156;37.772;-122.432;2022-09-12T02:45:56;101228.49;;;17.88;100.00
63970;BME280;50156;37.772;-122.432;2022-09-12T02:48:28;101227.38;;;17.84;100.00
63970;BME280;50156;37.772;-122.432;2022-09-12T02:50:59;101228.14;;;17.79;100.00
63970;BME280;50156;37.772;-122.432;2022-09-12T02:53:28;101231.46;;;17.70;100.00
63970;BME280;50156;37.772;-122.432;2022-09-12T02:55:57;101233.51;;;17.63;100.00
63970;BME280;50156;37.772;-122.432;2022-09-12T02:58:28;101236.32;;;17.58;100.00
63970;BME280;50156;37.772;-122.432;2022-09-12T03:01:06;101238.16;;;17.60;100.00
63970;BME280;50156;37.772;-122.432;2022-09-12T03:03:55;101243.48;;;17.55;100.00
63970;BME280;50156;37.772;-122.432;2022-09-12T03:06:32;101252.27;;;17.64;100.00
63970;BME280;50156;37.772;-122.432;2022-09-12T03:09:09;101254.91;;;17.63;100.00
63970;BME280;50156;37.772;-122.432;2022-09-12T03:11:55;101254.98;;;17.57;100.00
63970;BME280;50156;37.772;-122.432;2022-09-12T03:14:57;101259.36;;;17.55;100.00
63970;BME280;50156;37.772;-122.432;2022-09-12T03:17:42;101264.13;;;17.44;100.00
63970;BME280;50156;37.772;-122.432;2022-09-12T03:20:21;101264.57;;;17.44;100.00
63970;BME280;50156;37.772;-122.432;2022-09-12T03:22:55;101265.86;;;17.50;100.00
63970;BME280;50156;37.772;-122.432;2022-09-12T03:25:29;101272.33;;;17.36;100.00
63970;BME280;50156;37.772;-122.432;2022-09-12T03:28:02;101275.50;;;17.38;100.00
63970;BME280;50156;37.772;-122.432;2022-09-12T03:30:37;101274.64;;;17.36;100.00
63970;BME280;50156;37.772;-122.432;2022-09-12T03:33:09;101279.73;;;17.19;100.00
63970;BME280;50156;37.772;-122.432;2022-09-12T03:35:38;101283.70;;;17.22;100.00
63970;BME280;50156;37.772;-122.432;2022-09-12T03:38:07;101281.64;;;17.15;100.00
63970;BME280;50156;37.772;-122.432;2022-09-12T03:40:36;101283.06;;;17.17;100.00
63970;BME280;50156;37.772;-122.432;2022-09-12T03:43:06;101281.88;;;17.14;100.00
63970;BME280;50156;37.772;-122.432;2022-09-12T03:45:36;101282.94;;;17.10;100.00
63970;BME280;50156;37.772;-122.432;2022-09-12T03:48:05;101283.78;;;17.05;100.00
63970;BME280;50156;37.772;-122.432;2022-09-12T03:50:34;101286.89;;;17.01;100.00
63970;BME280;50156;37.772;-122.432;2022-09-12T03:53:02;101288.30;;;17.08;100.00
63970;BME280;50156;37.772;-122.432;2022-09-12T03:55:31;101290.91;;;17.11;100.00
63970;BME280;50156;37.772;-122.432;2022-09-12T03:57:59;101293.96;;;17.05;100.00
63970;BME280;50156;37.772;-122.432;2022-09-12T04:00:28;101292.75;;;16.95;100.00
63970;BME280;50156;37.772;-122.432;2022-09-12T04:02:57;101294.24;;;17.04;100.00
63970;BME280;50156;37.772;-122.432;2022-09-12T04:05:26;101293.10;;;17.07;100.00
63970;BME280;50156;37.772;-122.432;2022-09-12T04:07:54;101291.65;;;17.09;100.00
63970;BME280;50156;37.772;-122.432;2022-09-12T04:10:23;101292.68;;;17.02;100.00
63970;BME280;50156;37.772;-122.432;2022-09-12T04:12:52;101293.70;;;17.00;100.00
63970;BME280;50156;37.772;-122.432;2022-09-12T04:15:21;101291.33;;;16.96;100.00
63970;BME280;50156;37.772;-122.432;2022-09-12T04:17:49;101291.32;;;16.89;100.00
63970;BME280;50156;37.772;-122.432;2022-09-12T04:20:18;101294.19;;;16.81;100.00
63970;BME280;50156;37.772;-122.432;2022-09-12T04:22:47;101293.38;;;16.73;100.00
63970;BME280;50156;37.772;-122.432;2022-09-12T04:25:16;101295.02;;;16.74;100.00
63970;BME280;50156;37.772;-122.432;2022-09-12T04:27:44;101293.11;;;16.70;100.00
63970;BME280;50156;37.772;-122.432;2022-09-12T04:30:13;101298.43;;;16.62;100.00
63970;BME280;50156;37.772;-122.432;2022-09-12T04:32:42;101305.24;;;16.61;100.00
63970;BME280;50156;37.772;-122.432;2022-09-12T04:35:10;101309.84;;;16.65;100.00
63970;BME280;50156;37.772;-122.432;2022-09-12T04:37:39;101314.81;;;16.54;100.00
63970;BME280;50156;37.772;-122.432;2022-09-12T04:40:08;101312.44;;;16.65;100.00
63970;BME280;50156;37.772;-122.432;2022-09-12T04:42:37;101317.40;;;16.53;100.00
63970;BME280;50156;37.772;-122.432;2022-09-12T04:45:06;101324.32;;;16.62;100.00
63970;BME280;50156;37.772;-122.432;2022-09-12T04:47:35;101325.19;;;16.50;100.00
63970;BME280;50156;37.772;-122.432;2022-09-12T04:50:04;101327.90;;;16.46;100.00
63970;BME280;50156;37.772;-122.432;2022-09-12T04:52:33;101327.12;;;16.45;100.00
63970;BME280;50156;37.772;-122.432;2022-09-12T04:55:01;101329.80;;;16.44;100.00
63970;BME280;50156;37.772;-122.432;2022-09-12T04:57:30;101323.87;;;16.43;100.00
63970;BME280;50156;37.772;-122.432;2022-09-12T04:59:58;101324.08;;;16.45;100.00
63970;BME280;50156;37.772;-122.432;2022-09-12T05:02:27;101319.37;;;16.58;100.00
63970;BME280;50156;37.772;-122.432;2022-09-12T05:04:55;101317.80;;;16.56;100.00
63970;BME280;50156;37.772;-122.432;2022-09-12T05:07:24;101317.10;;;16.43;100.00
63970;BME280;50156;37.772;-122.432;2022-09-12T05:09:53;101318.79;;;16.35;100.00
63970;BME280;50156;37.772;-122.432;2022-09-12T05:12:22;101315.55;;;16.45;100.00
63970;BME280;50156;37.772;-122.432;2022-09-12T05:14:50;101315.18;;;16.41;100.00
63970;BME280;50156;37.772;-122.432;2022-09-12T05:17:19;101315.10;;;16.38;100.00
63970;BME280;50156;37.772;-122.432;2022-09-12T05:19:47;101315.78;;;16.44;100.00
63970;BME280;50156;37.772;-122.432;2022-09-12T05:22:16;101314.95;;;16.42;100.00
63970;BME280;50156;37.772;-122.432;2022-09-12T05:24:44;101308.23;;;16.43;100.00
63970;BME280;50156;37.772;-122.432;2022-09-12T05:27:12;101306.44;;;16.48;100.00
63970;BME280;50156;37.772;-122.432;2022-09-12T05:29:41;101302.26;;;16.43;100.00
63970;BME280;50156;37.772;-122.432;2022-09-12T05:32:09;101299.11;;;16.43;100.00
63970;BME280;50156;37.772;-122.432;2022-09-12T05:34:38;101296.77;;;16.38;100.00
63970;BME280;50156;37.772;-122.432;2022-09-12T05:37:06;101299.65;;;16.41;100.00
63970;BME280;50156;37.772;-122.432;2022-09-12T05:39:34;101299.01;;;16.40;100.00
63970;BME280;50156;37.772;-122.432;2022-09-12T05:42:03;101296.36;;;16.39;100.00
63970;BME280;50156;37.772;-122.432;2022-09-12T05:44:31;101295.74;;;16.41;100.00
63970;BME280;50156;37.772;-122.432;2022-09-12T05:47:00;101293.39;;;16.39;100.00
63970;BME280;50156;37.772;-122.432;2022-09-12T05:49:29;101293.16;;;16.39;100.00
63970;BME280;50156;37.772;-122.432;2022-09-12T05:51:57;101294.94;;;16.44;100.00
63970;BME280;50156;37.772;-122.432;2022-09-12T05:54:26;101281.70;;;16.40;100.00
63970;BME280;50156;37.772;-122.432;2022-09-12T05:56:55;101280.31;;;16.42;100.00
63970;BME280;50156;37.772;-122.432;2022-09-12T05:59:23;101277.04;;;16.43;100.00
63970;BME280;50156;37.772;-122.432;2022-09-12T06:01:52;101275.27;;;16.42;100.00
63970;BME280;50156;37.772;-122.432;2022-09-12T06:04:21;101273.47;;;16.45;100.00
63970;BME280;50156;37.772;-122.432;2022-09-12T06:06:49;101278.32;;;16.50;100.00
63970;BME280;50156;37.772;-122.432;2022-09-12T06:09:17;101273.37;;;16.52;100.00
63970;BME280;50156;37.772;-122.432;2022-09-12T06:11:46;101274.93;;;16.58;100.00
63970;BME280;50156;37.772;-122.432;2022-09-12T06:14:16;101276.50;;;16.58;100.00
63970;BME280;50156;37.772;-122.432;2022-09-12T06:16:45;101275.54;;;16.56;100.00
63970;BME280;50156;37.772;-122.432;2022-09-12T06:19:15;101274.10;;;16.56;100.00
63970;BME280;50156;37.772;-122.432;2022-09-12T06:21:44;101278.86;;;16.53;100.00
63970;BME280;50156;37.772;-122.432;2022-09-12T06:24:12;101283.14;;;16.50;100.00
63970;BME280;50156;37.772;-122.432;2022-09-12T06:26:41;101284.71;;;16.58;100.00
63970;BME280;50156;37.772;-122.432;2022-09-12T06:29:10;101281.74;;;16.67;100.00
63970;BME280;50156;37.772;-122.432;2022-09-12T06:31:39;101278.35;;;16.58;100.00
63970;BME280;50156;37.772;-122.432;2022-09-12T06:34:10;101279.04;;;16.67;100.00
63970;BME280;50156;37.772;-122.432;2022-09-12T06:36:40;101275.55;;;16.57;100.00
63970;BME280;50156;37.772;-122.432;2022-09-12T06:39:11;101275.53;;;16.53;100.00
63970;BME280;50156;37.772;-122.432;2022-09-12T06:41:40;101278.46;;;16.57;100.00
63970;BME280;50156;37.772;-122.432;2022-09-12T06:44:11;101279.97;;;16.62;100.00
63970;BME280;50156;37.772;-122.432;2022-09-12T06:46:40;101282.75;;;16.62;100.00
63970;BME280;50156;37.772;-122.432;2022-09-12T06:49:08;101284.52;;;16.59;100.00
63970;BME280;50156;37.772;-122.432;2022-09-12T06:51:37;101290.15;;;16.66;100.00
63970;BME280;50156;37.772;-122.432;2022-09-12T06:54:06;101296.25;;;16.63;100.00
63970;BME280;50156;37.772;-122.432;2022-09-12T06:56:35;101297.40;;;16.64;100.00
63970;BME280;50156;37.772;-122.432;2022-09-12T06:59:04;101300.62;;;16.69;100.00
63970;BME280;50156;37.772;-122.432;2022-09-12T07:01:32;101298.75;;;16.73;100.00
63970;BME280;50156;37.772;-122.432;2022-09-12T07:04:02;101295.77;;;16.67;100.00
63970;BME280;50156;37.772;-122.432;2022-09-12T07:06:36;101295.77;;;16.67;100.00
63970;BME280;50156;37.772;-122.432;2022-09-12T07:09:06;101289.59;;;16.60;100.00
63970;BME280;50156;37.772;-122.432;2022-09-12T07:11:37;101282.56;;;16.60;100.00
63970;BME280;50156;37.772;-122.432;2022-09-12T07:14:07;101284.59;;;16.70;100.00
63970;BME280;50156;37.772;-122.432;2022-09-12T07:16:37;101278.02;;;16.62;100.00
63970;BME280;50156;37.772;-122.432;2022-09-12T07:19:06;101281.92;;;16.53;100.00
63970;BME280;50156;37.772;-122.432;2022-09-12T07:21:35;101279.81;;;16.56;100.00
63970;BME280;50156;37.772;-122.432;2022-09-12T07:24:04;101286.41;;;16.63;100.00
63970;BME280;50156;37.772;-122.432;2022-09-12T07:26:33;101287.48;;;16.73;100.00
63970;BME280;50156;37.772;-122.432;2022-09-12T07:29:01;101285.24;;;16.72;100.00
63970;BME280;50156;37.772;-122.432;2022-09-12T07:31:30;101284.06;;;16.78;100.00
63970;BME280;50156;37.772;-122.432;2022-09-12T07:33:59;101277.64;;;16.83;100.00
63970;BME280;50156;37.772;-122.432;2022-09-12T07:36:28;101281.50;;;16.76;100.00
63970;BME280;50156;37.772;-122.432;2022-09-12T07:38:57;101278.08;;;16.71;100.00
63970;BME280;50156;37.772;-122.432;2022-09-12T07:41:27;101277.85;;;16.81;100.00
63970;BME280;50156;37.772;-122.432;2022-09-12T07:43:57;101276.96;;;16.68;100.00
63970;BME280;50156;37.772;-122.432;2022-09-12T07:46:28;101270.52;;;16.73;100.00
63970;BME280;50156;37.772;-122.432;2022-09-12T07:48:58;101268.20;;;16.63;100.00
63970;BME280;50156;37.772;-122.432;2022-09-12T07:51:29;101269.80;;;16.57;100.00
63970;BME280;50156;37.772;-122.432;2022-09-12T07:53:58;101266.12;;;16.55;100.00
63970;BME280;50156;37.772;-122.432;2022-09-12T07:56:27;101270.31;;;16.60;100.00
63970;BME280;50156;37.772;-122.432;2022-09-12T07:58:56;101267.23;;;16.57;100.00
63970;BME280;50156;37.772;-122.432;2022-09-12T08:01:26;101268.01;;;16.51;100.00
63970;BME280;50156;37.772;-122.432;2022-09-12T08:03:56;101275.84;;;16.59;100.00
63970;BME280;50156;37.772;-122.432;2022-09-12T08:06:27;101271.04;;;16.44;100.00
63970;BME280;50156;37.772;-122.432;2022-09-12T08:08:57;101269.67;;;16.56;100.00
63970;BME280;50156;37.772;-122.432;2022-09-12T08:11:27;101272.00;;;16.58;100.00
63970;BME280;50156;37.772;-122.432;2022-09-12T08:13:56;101267.01;;;16.66;100.00
63970;BME280;50156;37.772;-122.432;2022-09-12T08:16:27;101262.40;;;16.65;100.00
63970;BME280;50156;37.772;-122.432;2022-09-12T08:18:57;101265.49;;;16.65;100.00
63970;BME280;50156;37.772;-122.432;2022-09-12T08:21:29;101261.98;;;16.57;100.00
63970;BME280;50156;37.772;-122.432;2022-09-12T08:23:59;101265.34;;;16.48;100.00
63970;BME280;50156;37.772;-122.432;2022-09-12T08:26:28;101259.69;;;16.47;100.00
63970;BME280;50156;37.772;-122.432;2022-09-12T08:28:57;101255.84;;;16.36;100.00
63970;BME280;50156;37.772;-122.432;2022-09-12T08:31:27;101251.45;;;16.37;100.00
63970;BME280;50156;37.772;-122.432;2022-09-12T08:33:56;101248.87;;;16.39;100.00
63970;BME280;50156;37.772;-122.432;2022-09-12T08:36:27;101246.47;;;16.48;100.00
63970;BME280;50156;37.772;-122.432;2022-09-12T08:38:57;101243.47;;;16.47;100.00
63970;BME280;50156;37.772;-122.432;2022-09-12T08:41:28;101241.15;;;16.51;100.00
63970;BME280;50156;37.772;-122.432;2022-09-12T08:44:11;101239.91;;;16.46;100.00
63970;BME280;50156;37.772;-122.432;2022-09-12T08:46:51;101231.71;;;16.56;100.00
63970;BME280;50156;37.772;-122.432;2022-09-12T08:49:28;101226.97;;;16.55;100.00
63970;BME280;50156;37.772;-122.432;2022-09-12T08:52:02;101225.19;;;16.48;100.00
63970;BME280;50156;37.772;-122.432;2022-09-12T08:54:33;101221.01;;;16.62;100.00
63970;BME280;50156;37.772;-122.432;2022-09-12T08:57:04;101221.39;;;16.62;100.00
63970;BME280;50156;37.772;-122.432;2022-09-12T08:59:37;101218.80;;;16.58;100.00
63970;BME280;50156;37.772;-122.432;2022-09-12T09:02:32;101218.62;;;16.47;100.00
63970;BME280;50156;37.772;-122.432;2022-09-12T09:05:12;101217.21;;;16.38;100.00
63970;BME280;50156;37.772;-122.432;2022-09-12T09:08:16;101219.93;;;16.26;100.00
63970;BME280;50156;37.772;-122.432;2022-09-12T09:10:50;101214.08;;;16.35;100.00
63970;BME280;50156;37.772;-122.432;2022-09-12T09:13:31;101216.44;;;16.33;100.00
63970;BME280;50156;37.772;-122.432;2022-09-12T09:16:08;101212.60;;;16.43;100.00
63970;BME280;50156;37.772;-122.432;2022-09-12T09:18:39;101208.06;;;16.38;100.00
63970;BME280;50156;37.772;-122.432;2022-09-12T09:21:20;101207.07;;;16.38;100.00
63970;BME280;50156;37.772;-122.432;2022-09-12T09:23:56;101201.88;;;16.48;100.00
63970;BME280;50156;37.772;-122.432;2022-09-12T09:26:32;101199.98;;;16.49;100.00
63970;BME280;50156;37.772;-122.432;2022-09-12T09:29:09;101200.60;;;16.49;100.00
63970;BME280;50156;37.772;-122.432;2022-09-12T09:31:39;101197.77;;;16.56;100.00
63970;BME280;50156;37.772;-122.432;2022-09-12T09:34:14;101196.94;;;16.66;100.00
63970;BME280;50156;37.772;-122.432;2022-09-12T09:36:50;101195.56;;;16.45;100.00
63970;BME280;50156;37.772;-122.432;2022-09-12T09:39:36;101186.74;;;16.34;100.00
63970;BME280;50156;37.772;-122.432;2022-09-12T09:42:17;101188.98;;;16.32;100.00
63970;BME280;50156;37.772;-122.432;2022-09-12T09:44:53;101182.94;;;16.26;100.00
63970;BME280;50156;37.772;-122.432;2022-09-12T09:47:24;101186.96;;;16.35;100.00
63970;BME280;50156;37.772;-122.432;2022-09-12T09:49:52;101187.52;;;16.35;100.00
63970;BME280;50156;37.772;-122.432;2022-09-12T09:52:26;101186.36;;;16.39;100.00
63970;BME280;50156;37.772;-122.432;2022-09-12T09:54:59;101187.44;;;16.30;100.00
63970;BME280;50156;37.772;-122.432;2022-09-12T09:57:44;101183.28;;;16.38;100.00
63970;BME280;50156;37.772;-122.432;2022-09-12T10:00:22;101187.27;;;16.36;100.00
63970;BME280;50156;37.772;-122.432;2022-09-12T10:03:24;101190.66;;;16.38;100.00
63970;BME280;50156;37.772;-122.432;2022-09-12T10:05:56;101191.21;;;16.42;100.00
63970;BME280;50156;37.772;-122.432;2022-09-12T10:08:28;101191.76;;;16.54;100.00
63970;BME280;50156;37.772;-122.432;2022-09-12T10:11:00;101192.19;;;16.26;100.00
63970;BME280;50156;37.772;-122.432;2022-09-12T10:13:35;101192.85;;;16.35;100.00
63970;BME280;50156;37.772;-122.432;2022-09-12T10:16:06;101197.18;;;16.35;100.00
63970;BME280;50156;37.772;-122.432;2022-09-12T10:18:44;101197.84;;;16.38;100.00
63970;BME280;50156;37.772;-122.432;2022-09-12T10:21:24;101195.17;;;16.22;100.00
63970;BME280;50156;37.772;-122.432;2022-09-12T10:24:02;101197.46;;;16.10;100.00
63970;BME280;50156;37.772;-122.432;2022-09-12T10:26:35;101199.42;;;16.15;100.00
63970;BME280;50156;37.772;-122.432;2022-09-12T10:29:14;101198.17;;;16.06;100.00
63970;BME280;50156;37.772;-122.432;2022-09-12T10:31:48;101195.50;;;16.06;100.00
63970;BME280;50156;37.772;-122.432;2022-09-12T10:34:26;101199.52;;;16.04;100.00
63970;BME280;50156;37.772;-122.432;2022-09-12T10:37:04;101195.31;;;16.07;100.00
63970;BME280;50156;37.772;-122.432;2022-09-12T10:39:33;101194.42;;;16.20;100.00
63970;BME280;50156;37.772;-122.432;2022-09-12T10:42:04;101198.96;;;16.21;100.00
63970;BME280;50156;37.772;-122.432;2022-09-12T10:44:34;101196.15;;;16.28;100.00
63970;BME280;50156;37.772;-122.432;2022-09-12T10:47:21;101195.35;;;16.23;100.00
63970;BME280;50156;37.772;-122.432;2022-09-12T10:49:49;101186.36;;;16.17;100.00
63970;BME280;50156;37.772;-122.432;2022-09-12T10:52:23;101188.49;;;16.21;100.00
63970;BME280;50156;37.772;-122.432;2022-09-12T10:54:53;101190.84;;;16.22;100.00
63970;BME280;50156;37.772;-122.432;2022-09-12T10:57:33;101190.45;;;16.19;100.00
63970;BME280;50156;37.772;-122.432;2022-09-12T11:00:10;101195.05;;;16.11;100.00
63970;BME280;50156;37.772;-122.432;2022-09-12T11:02:50;101199.85;;;15.99;100.00
63970;BME280;50156;37.772;-122.432;2022-09-12T11:05:59;101195.54;;;15.94;100.00
63970;BME280;50156;37.772;-122.432;2022-09-12T11:08:48;101187.16;;;15.78;100.00
63970;BME280;50156;37.772;-122.432;2022-09-12T11:11:35;101191.08;;;15.84;100.00
63970;BME280;50156;37.772;-122.432;2022-09-12T11:14:16;101193.79;;;15.77;100.00
63970;BME280;50156;37.772;-122.432;2022-09-12T11:16:57;101198.67;;;15.90;100.00
63970;BME280;50156;37.772;-122.432;2022-09-12T11:19:52;101190.93;;;15.90;100.00
63970;BME280;50156;37.772;-122.432;2022-09-12T11:22:39;101194.46;;;15.78;100.00
63970;BME280;50156;37.772;-122.432;2022-09-12T11:25:19;101192.99;;;15.83;100.00
63970;BME280;50156;37.772;-122.432;2022-09-12T11:28:17;101190.46;;;15.81;100.00
63970;BME280;50156;37.772;-122.432;2022-09-12T11:30:58;101192.51;;;15.94;100.00
63970;BME280;50156;37.772;-122.432;2022-09-12T11:33:40;101189.00;;;15.73;100.00
63970;BME280;50156;37.772;-122.432;2022-09-12T11:36:22;101174.31;;;15.79;100.00
63970;BME280;50156;37.772;-122.432;2022-09-12T11:39:02;101186.53;;;15.68;100.00
63970;BME280;50156;37.772;-122.432;2022-09-12T11:41:38;101181.29;;;15.69;100.00
63970;BME280;50156;37.772;-122.432;2022-09-12T11:44:16;101185.08;;;15.58;100.00
63970;BME280;50156;37.772;-122.432;2022-09-12T11:46:46;101194.45;;;15.61;100.00
63970;BME280;50156;37.772;-122.432;2022-09-12T11:49:21;101196.78;;;15.58;100.00
63970;BME280;50156;37.772;-122.432;2022-09-12T11:51:55;101192.49;;;15.58;100.00
63970;BME280;50156;37.772;-122.432;2022-09-12T11:54:30;101191.54;;;15.64;100.00
63970;BME280;50156;37.772;-122.432;2022-09-12T11:57:07;101198.79;;;15.55;100.00
63970;BME280;50156;37.772;-122.432;2022-09-12T11:59:46;101196.54;;;15.59;100.00
63970;BME280;50156;37.772;-122.432;2022-09-12T12:02:23;101197.71;;;15.68;100.00
63970;BME280;50156;37.772;-122.432;2022-09-12T12:05:03;101200.96;;;15.75;100.00
63970;BME280;50156;37.772;-122.432;2022-09-12T12:07:40;101197.58;;;15.78;100.00
63970;BME280;50156;37.772;-122.432;2022-09-12T12:10:24;101194.34;;;15.87;100.00
63970;BME280;50156;37.772;-122.432;2022-09-12T12:12:54;101192.94;;;16.01;100.00
63970;BME280;50156;37.772;-122.432;2022-09-12T12:15:25;101193.82;;;16.03;100.00
63970;BME280;50156;37.772;-122.432;2022-09-12T12:18:01;101191.18;;;16.08;100.00
63970;BME280;50156;37.772;-122.432;2022-09-12T12:20:30;101186.34;;;16.09;100.00
63970;BME280;50156;37.772;-122.432;2022-09-12T12:22:59;101177.42;;;16.19;100.00
63970;BME280;50156;37.772;-122.432;2022-09-12T12:25:40;101172.71;;;16.19;100.00
63970;BME280;50156;37.772;-122.432;2022-09-12T12:28:57;101166.37;;;16.10;100.00
63970;BME280;50156;37.772;-122.432;2022-09-12T12:31:26;101158.29;;;16.09;100.00
63970;BME280;50156;37.772;-122.432;2022-09-12T12:34:20;101153.56;;;16.08;100.00
63970;BME280;50156;37.772;-122.432;2022-09-12T12:36:49;101149.17;;;15.99;100.00
63970;BME280;50156;37.772;-122.432;2022-09-12T12:39:57;101149.43;;;15.96;100.00
63970;BME280;50156;37.772;-122.432;2022-09-12T12:43:03;101151.54;;;16.11;100.00